Time;durP1;ratioP1;P1;durP2;ratioP2;P2;SDS_P1;SDS_P2;PMS_P1;PMS_P2;Temp;Humidity;BMP_temperature;BMP_pressure;BME280_temperature;BME280_humidity;BME280_pressure;Samples;Min_cycle;Max_cycle;Signal;HPM_P1;HPM_P2
2021/07/25 00:02:12;;;;;;;15.07;13.68;;;22.80;64.10;;;;;;5054913;28;20175;-71
2021/07/25 00:04:38;;;;;;;14.20;12.80;;;22.80;64.20;;;;;;5053788;28;20637;-71
2021/07/25 00:07:04;;;;;;;14.73;13.32;;;22.70;64.10;;;;;;5054733;28;20172;-73
2021/07/25 00:09:29;;;;;;;15.13;13.63;;;22.70;64.10;;;;;;5054424;28;20187;-72
2021/07/25 00:11:55;;;;;;;14.85;13.38;;;22.70;64.10;;;;;;5053864;28;20656;-71
2021/07/25 00:14:20;;;;;;;15.73;14.18;;;22.70;64.10;;;;;;5054496;28;20183;-71
2021/07/25 00:16:46;;;;;;;14.80;13.35;;;22.70;64.20;;;;;;5054740;28;20222;-71
2021/07/25 00:19:12;;;;;;;14.35;12.98;;;22.70;64.20;;;;;;5053852;28;20740;-73
2021/07/25 00:21:39;;;;;;;14.80;13.30;;;22.70;64.10;;;;;;5054390;28;20179;-73
2021/07/25 00:24:04;;;;;;;15.70;14.10;;;22.70;64.10;;;;;;5054383;28;20183;-70
2021/07/25 00:26:37;;;;;;;13.93;12.63;;;22.70;64.20;;;;;;5053714;28;20175;-72
2021/07/25 00:29:03;;;;;;;14.63;12.95;;;22.70;64.10;;;;;;5054564;28;20613;-70
2021/07/25 00:31:29;;;;;;;15.20;13.80;;;22.70;64.20;;;;;;5054221;28;20167;-69
2021/07/25 00:33:55;;;;;;;16.40;14.73;;;22.70;64.20;;;;;;5053789;28;20179;-71
2021/07/25 00:36:23;;;;;;;15.57;13.98;;;22.70;64.30;;;;;;5036187;28;20175;-71
2021/07/25 00:38:49;;;;;;;16.10;14.60;;;22.70;64.40;;;;;;5054097;28;20583;-72
2021/07/25 00:41:15;;;;;;;15.52;14.02;;;22.70;64.40;;;;;;5053726;28;20175;-71
2021/07/25 00:43:41;;;;;;;14.95;13.48;;;22.70;64.40;;;;;;5054275;28;20179;-72
2021/07/25 00:46:07;;;;;;;16.05;14.43;;;22.70;64.30;;;;;;5054222;28;20246;-71
2021/07/25 00:48:32;;;;;;;15.65;14.15;;;22.70;64.40;;;;;;5053147;28;20233;-72
2021/07/25 00:50:58;;;;;;;14.35;12.95;;;22.70;64.40;;;;;;5035329;28;20171;-72
2021/07/25 00:53:24;;;;;;;15.65;14.15;;;22.70;64.40;;;;;;5053181;28;20179;-71
2021/07/25 00:55:49;;;;;;;14.55;13.25;;;22.70;64.40;;;;;;5036338;28;20175;-72
2021/07/25 00:58:15;;;;;;;14.45;13.05;;;22.70;64.40;;;;;;5036097;28;20210;-71
2021/07/25 01:00:43;;;;;;;14.40;13.00;;;22.70;64.40;;;;;;5053074;28;20179;-71
2021/07/25 01:03:15;;;;;;;15.60;13.85;;;22.70;64.30;;;;;;5053735;28;20214;-73
2021/07/25 01:05:52;;;;;;;15.48;13.95;;;22.60;64.20;;;;;;5053947;28;20202;-73
2021/07/25 01:08:42;;;;;;;16.27;13.85;;;22.60;64.20;;;;;;5036477;28;20175;-72
2021/07/25 01:11:08;;;;;;;14.35;12.95;;;22.70;64.30;;;;;;5053595;28;20552;-71
2021/07/25 01:13:35;;;;;;;14.98;13.52;;;22.70;64.30;;;;;;5035568;28;20183;-71
2021/07/25 01:16:01;;;;;;;15.07;13.57;;;22.60;64.30;;;;;;5035479;28;20208;-71
2021/07/25 01:18:26;;;;;;;14.82;13.32;;;22.60;64.20;;;;;;5035523;28;20246;-72
2021/07/25 01:20:54;;;;;;;14.95;13.57;;;22.60;64.30;;;;;;5053698;28;20254;-72
2021/07/25 01:23:21;;;;;;;13.88;12.48;;;22.60;64.40;;;;;;5052494;28;20232;-71
2021/07/25 01:25:46;;;;;;;14.27;12.98;;;22.60;64.30;;;;;;5035321;28;20590;-71
2021/07/25 01:28:23;;;;;;;15.05;13.68;;;22.60;64.30;;;;;;5053247;28;20171;-71
2021/07/25 01:30:52;;;;;;;13.98;12.68;;;22.60;64.30;;;;;;5035267;28;20182;-70
2021/07/25 01:33:20;;;;;;;14.90;13.45;;;22.60;64.30;;;;;;5035481;28;20536;-69
2021/07/25 01:35:46;;;;;;;14.63;13.23;;;22.60;64.30;;;;;;5034816;28;20696;-71
2021/07/25 01:38:11;;;;;;;13.63;12.32;;;22.60;64.30;;;;;;5035266;28;20195;-72
2021/07/25 01:40:37;;;;;;;14.27;12.98;;;22.60;64.20;;;;;;5035057;28;20174;-71
2021/07/25 01:43:03;;;;;;;14.82;13.43;;;22.60;64.20;;;;;;5052784;28;20175;-71
2021/07/25 01:45:29;;;;;;;14.98;13.57;;;22.60;64.30;;;;;;5053017;28;20182;-71
2021/07/25 01:47:54;;;;;;;14.80;13.40;;;22.60;64.20;;;;;;5053140;28;20176;-72
2021/07/25 01:50:20;;;;;;;14.27;12.82;;;22.60;64.20;;;;;;5052167;28;20175;-72
2021/07/25 01:52:45;;;;;;;15.05;13.55;;;22.60;64.20;;;;;;5053017;28;20173;-71
2021/07/25 01:55:11;;;;;;;14.15;12.85;;;22.60;64.30;;;;;;5052873;28;20202;-71
2021/07/25 01:57:37;;;;;;;14.38;13.05;;;22.60;64.40;;;;;;5052135;28;20171;-71
2021/07/25 02:00:04;;;;;;;15.75;14.00;;;22.60;64.30;;;;;;5052719;28;20756;-72
2021/07/25 02:02:29;;;;;;;16.38;14.80;;;22.60;64.40;;;;;;5052505;28;20182;-72
2021/07/25 02:04:55;;;;;;;17.55;13.98;;;22.60;64.40;;;;;;5052278;28;20174;-72
2021/07/25 02:07:20;;;;;;;14.73;13.32;;;22.60;64.40;;;;;;5052588;28;20206;-72
2021/07/25 02:09:46;;;;;;;15.20;13.75;;;22.60;64.40;;;;;;5052765;28;20221;-71
2021/07/25 02:12:11;;;;;;;15.90;14.40;;;22.60;64.50;;;;;;5052050;28;20716;-71
2021/07/25 02:14:38;;;;;;;16.02;14.40;;;22.60;64.60;;;;;;5052393;28;20183;-71
2021/07/25 02:17:04;;;;;;;14.73;13.32;;;22.60;64.50;;;;;;5053159;28;20186;-71
2021/07/25 02:19:30;;;;;;;15.50;13.98;;;22.60;64.40;;;;;;5051563;28;20223;-73
2021/07/25 02:21:55;;;;;;;14.70;13.30;;;22.60;64.40;;;;;;5052682;28;20170;-72
2021/07/25 02:24:21;;;;;;;14.40;13.02;;;22.50;64.30;;;;;;5052199;28;20215;-72
2021/07/25 02:26:47;;;;;;;15.25;13.85;;;22.50;64.40;;;;;;5051874;28;20213;-71
2021/07/25 02:29:12;;;;;;;14.18;12.77;;;22.60;64.40;;;;;;5053079;28;20178;-70
2021/07/25 02:31:38;;;;;;;15.20;13.80;;;22.50;64.40;;;;;;5053595;28;20171;-70
2021/07/25 02:34:03;;;;;;;15.07;13.70;;;22.50;64.30;;;;;;5052679;28;20213;-70
2021/07/25 02:36:29;;;;;;;15.27;13.68;;;22.50;64.40;;;;;;5052130;28;20202;-71
2021/07/25 02:38:54;;;;;;;15.68;14.18;;;22.50;64.30;;;;;;5051749;28;20214;-71
2021/07/25 02:41:20;;;;;;;14.93;13.50;;;22.50;64.40;;;;;;5052274;28;20179;-72
2021/07/25 02:43:46;;;;;;;15.27;13.50;;;22.50;64.40;;;;;;5052225;28;20182;-72
2021/07/25 02:46:11;;;;;;;14.43;13.02;;;22.50;64.40;;;;;;5051883;28;20171;-71
2021/07/25 02:48:37;;;;;;;15.05;13.65;;;22.50;64.40;;;;;;5052319;28;20203;-72
2021/07/25 02:51:08;;;;;;;15.63;14.18;;;22.50;64.40;;;;;;5052621;28;20177;-71
2021/07/25 02:53:34;;;;;;;14.88;13.57;;;22.50;64.50;;;;;;5051224;28;20168;-71
2021/07/25 02:55:59;;;;;;;14.38;13.02;;;22.50;64.40;;;;;;5052274;28;20182;-71
2021/07/25 02:58:25;;;;;;;15.35;13.50;;;22.50;64.50;;;;;;5052169;28;20211;-71
2021/07/25 03:00:50;;;;;;;15.25;13.82;;;22.50;64.40;;;;;;5051779;28;20168;-70
2021/07/25 03:03:16;;;;;;;16.35;14.75;;;22.50;64.50;;;;;;5052049;28;20179;-71
2021/07/25 03:05:41;;;;;;;15.43;13.90;;;22.50;64.50;;;;;;5052157;28;20183;-72
2021/07/25 03:08:07;;;;;;;15.90;14.30;;;22.50;64.60;;;;;;5051670;28;20543;-73
2021/07/25 03:10:32;;;;;;;15.35;13.90;;;22.50;64.50;;;;;;5051832;28;20194;-71
2021/07/25 03:12:58;;;;;;;16.70;15.05;;;22.50;65.50;;;;;;5051599;28;20187;-71
2021/07/25 03:15:23;;;;;;;16.42;14.93;;;22.50;64.80;;;;;;5053676;28;20179;-71
2021/07/25 03:17:49;;;;;;;16.23;14.70;;;22.50;64.80;;;;;;5056008;28;20186;-72
2021/07/25 03:20:15;;;;;;;16.15;14.52;;;22.50;64.70;;;;;;5055941;28;20238;-72
2021/07/25 03:22:40;;;;;;;16.00;14.32;;;22.50;65.60;;;;;;5054943;28;20258;-71
2021/07/25 03:25:06;;;;;;;15.50;13.88;;;22.40;64.60;;;;;;5055651;28;20314;-71
2021/07/25 03:27:32;;;;;;;14.98;13.38;;;22.50;64.60;;;;;;5055536;28;20198;-70
2021/07/25 03:29:57;;;;;;;15.18;13.82;;;22.50;64.60;;;;;;5055028;28;20171;-70
2021/07/25 03:32:23;;;;;;;16.30;14.73;;;22.50;64.70;;;;;;5055269;28;20228;-71
2021/07/25 03:34:48;;;;;;;16.23;14.73;;;22.50;64.60;;;;;;5055562;28;20175;-71
2021/07/25 03:37:14;;;;;;;15.50;14.07;;;22.50;64.70;;;;;;5054741;28;20179;-71
2021/07/25 03:39:42;;;;;;;14.90;13.48;;;22.40;64.60;;;;;;5054851;28;20669;-72
2021/07/25 03:42:08;;;;;;;15.15;13.50;;;22.50;64.60;;;;;;5055321;28;20175;-72
2021/07/25 03:44:33;;;;;;;14.02;12.73;;;22.50;64.60;;;;;;5054966;28;20640;-72
2021/07/25 03:46:59;;;;;;;15.52;14.13;;;22.40;64.50;;;;;;5055410;28;20565;-71
2021/07/25 03:49:24;;;;;;;14.52;13.15;;;22.40;64.50;;;;;;5054173;28;20533;-72
2021/07/25 03:51:50;;;;;;;14.20;12.80;;;22.40;64.60;;;;;;5055152;28;20179;-72
2021/07/25 03:54:15;;;;;;;14.60;12.98;;;22.50;64.50;;;;;;5055105;28;20179;-72
2021/07/25 03:56:41;;;;;;;13.40;12.20;;;22.40;64.50;;;;;;5054621;28;20182;-71
2021/07/25 03:59:06;;;;;;;13.90;12.60;;;22.40;64.60;;;;;;5055263;28;20223;-71
2021/07/25 04:01:32;;;;;;;13.35;12.15;;;22.40;64.60;;;;;;5054899;28;20167;-72
2021/07/25 04:03:57;;;;;;;15.55;14.05;;;22.40;64.70;;;;;;5054466;28;20171;-71
2021/07/25 04:06:23;;;;;;;14.43;13.10;;;22.40;65.20;;;;;;5054816;28;20266;-72
2021/07/25 04:08:48;;;;;;;16.60;15.10;;;22.40;64.80;;;;;;5054889;28;20179;-72
2021/07/25 04:11:20;;;;;;;15.98;14.45;;;22.40;64.70;;;;;;5054392;28;20312;-71
2021/07/25 04:13:48;;;;;;;15.75;14.20;;;22.40;64.80;;;;;;5054651;28;20182;-71
2021/07/25 04:16:14;;;;;;;16.77;15.18;;;22.40;64.80;;;;;;5054836;28;20171;-71
2021/07/25 04:18:39;;;;;;;15.82;14.35;;;22.40;64.90;;;;;;5053587;28;20256;-71
2021/07/25 04:21:05;;;;;;;16.50;14.90;;;22.40;64.90;;;;;;5054879;28;20168;-72
2021/07/25 04:23:30;;;;;;;13.23;12.10;;;22.40;64.90;;;;;;5054214;28;20187;-70
2021/07/25 04:25:56;;;;;;;14.40;13.00;;;22.40;64.90;;;;;;5052454;28;20596;-71
2021/07/25 04:28:22;;;;;;;14.82;13.38;;;22.40;64.90;;;;;;5054399;28;20183;-70
2021/07/25 04:30:47;;;;;;;14.95;13.35;;;22.40;64.80;;;;;;5054947;28;20202;-71
2021/07/25 04:33:16;;;;;;;14.50;13.10;;;22.40;64.90;;;;;;5054418;28;20218;-70
2021/07/25 04:35:42;;;;;;;14.70;13.02;;;22.40;64.80;;;;;;5054532;28;20175;-71
2021/07/25 04:38:08;;;;;;;15.48;13.65;;;22.40;64.80;;;;;;5054425;28;20228;-71
2021/07/25 04:40:34;;;;;;;14.43;13.07;;;22.40;64.80;;;;;;5053688;28;20219;-72
2021/07/25 04:42:59;;;;;;;14.82;13.32;;;22.40;64.90;;;;;;5054875;28;20229;-72
2021/07/25 04:45:46;;;;;;;15.00;13.52;;;22.40;64.90;;;;;;5054574;28;20179;-73
2021/07/25 04:48:21;;;;;;;15.18;13.68;;;22.40;64.90;;;;;;5054082;28;20186;-72
2021/07/25 04:50:50;;;;;;;14.38;13.00;;;22.40;64.80;;;;;;5054451;28;20574;-73
2021/07/25 04:53:26;;;;;;;14.65;13.25;;;22.40;64.90;;;;;;5053003;28;20167;-72
2021/07/25 04:56:00;;;;;;;13.73;12.43;;;22.40;64.80;;;;;;5054757;28;20266;-72
2021/07/25 04:58:38;;;;;;;14.48;13.07;;;22.50;64.80;;;;;;5054831;28;20198;-72
2021/07/25 05:01:04;;;;;;;15.63;14.25;;;22.50;64.80;;;;;;5037720;28;20178;-71
2021/07/25 05:03:33;;;;;;;15.15;13.63;;;22.50;64.70;;;;;;5055692;28;20714;-73
2021/07/25 05:05:59;;;;;;;15.23;13.75;;;22.50;64.80;;;;;;5054300;28;20254;-73
2021/07/25 05:08:25;;;;;;;15.13;13.70;;;22.50;64.80;;;;;;5052856;28;20642;-73
2021/07/25 05:10:57;;;;;;;16.35;14.73;;;22.50;64.80;;;;;;5053793;28;20652;-72
2021/07/25 05:13:24;;;;;;;15.25;13.85;;;22.50;64.80;;;;;;5035664;28;20564;-71
2021/07/25 05:15:50;;;;;;;14.90;13.40;;;22.50;64.80;;;;;;5053094;28;20175;-72
2021/07/25 05:18:24;;;;;;;14.77;13.38;;;22.50;64.80;;;;;;5053206;28;20660;-72
2021/07/25 05:20:57;;;;;;;14.90;13.40;;;22.50;64.80;;;;;;5035281;28;20206;-72
2021/07/25 05:23:45;;;;;;;15.85;14.25;;;22.50;64.90;;;;;;5053382;28;20224;-72
2021/07/25 05:26:11;;;;;;;14.30;12.90;;;22.50;64.90;;;;;;5053163;28;20222;-73
2021/07/25 05:28:37;;;;;;;15.50;14.00;;;22.50;64.90;;;;;;5052558;28;20319;-71
2021/07/25 05:31:04;;;;;;;15.02;13.63;;;22.50;64.90;;;;;;5053219;28;20633;-70
2021/07/25 05:33:29;;;;;;;15.77;14.18;;;22.50;65.00;;;;;;5052638;28;20194;-71
2021/07/25 05:35:55;;;;;;;14.52;13.23;;;22.50;64.90;;;;;;5052517;28;20175;-72
2021/07/25 05:38:20;;;;;;;14.32;12.93;;;22.50;64.90;;;;;;5052303;28;20675;-72
2021/07/25 05:40:46;;;;;;;14.20;12.80;;;22.50;64.90;;;;;;5053438;28;20179;-73
2021/07/25 05:43:11;;;;;;;14.45;13.05;;;22.50;64.90;;;;;;5052583;28;20168;-72
2021/07/25 05:45:37;;;;;;;14.73;13.30;;;22.50;64.90;;;;;;5053038;28;20261;-73
2021/07/25 05:48:03;;;;;;;13.63;12.25;;;22.50;64.90;;;;;;5052554;28;20211;-74
2021/07/25 05:50:28;;;;;;;14.40;13.00;;;22.50;64.80;;;;;;5051942;28;20253;-73
2021/07/25 05:52:55;;;;;;;13.63;12.38;;;22.50;64.90;;;;;;5052998;28;20207;-72
2021/07/25 05:55:31;;;;;;;13.98;12.57;;;22.50;64.80;;;;;;5052816;28;20179;-72
2021/07/25 05:57:57;;;;;;;13.20;11.90;;;22.60;64.80;;;;;;5052395;28;20175;-72
2021/07/25 06:00:22;;;;;;;13.25;11.95;;;22.50;64.80;;;;;;5052816;28;20210;-72
2021/07/25 06:02:56;;;;;;;12.63;11.40;;;22.60;64.80;;;;;;5052497;28;20517;-72
2021/07/25 06:05:22;;;;;;;13.15;11.85;;;22.60;64.70;;;;;;5052515;28;20179;-73
2021/07/25 06:07:48;;;;;;;12.07;10.95;;;22.60;64.70;;;;;;5052870;28;20170;-73
2021/07/25 06:10:14;;;;;;;11.38;10.38;;;22.60;64.70;;;;;;5052174;28;20233;-72
2021/07/25 06:12:39;;;;;;;12.63;10.95;;;22.60;64.60;;;;;;5052658;28;20513;-72
2021/07/25 06:15:05;;;;;;;11.85;10.52;;;22.60;64.50;;;;;;5052657;28;20224;-71
2021/07/25 06:17:31;;;;;;;12.25;11.05;;;22.60;64.50;;;;;;5051907;28;20178;-73
2021/07/25 06:19:56;;;;;;;11.93;10.82;;;22.60;64.60;;;;;;5052663;28;20293;-73
2021/07/25 06:22:22;;;;;;;11.57;10.45;;;22.60;64.50;;;;;;5052460;28;20203;-73
2021/07/25 06:24:47;;;;;;;11.52;10.43;;;22.60;64.50;;;;;;5051657;28;20704;-72
2021/07/25 06:27:12;;;;;;;10.80;9.75;;;22.60;64.50;;;;;;5052700;28;20173;-70
2021/07/25 06:29:38;;;;;;;11.38;10.30;;;22.60;64.50;;;;;;5052368;28;20171;-71
2021/07/25 06:32:06;;;;;;;11.18;10.18;;;22.60;64.50;;;;;;5051802;28;20237;-71
2021/07/25 06:34:32;;;;;;;10.80;9.75;;;22.60;64.50;;;;;;5052042;28;20171;-72
2021/07/25 06:36:57;;;;;;;10.88;9.88;;;22.60;64.50;;;;;;5052761;28;20174;-72
2021/07/25 06:39:23;;;;;;;10.45;9.45;;;22.60;64.60;;;;;;5051707;28;20214;-72
2021/07/25 06:41:48;;;;;;;11.02;9.93;;;22.60;64.60;;;;;;5052552;28;20167;-73
2021/07/25 06:44:14;;;;;;;9.32;8.50;;;22.60;64.50;;;;;;5052424;28;20175;-72
2021/07/25 06:46:39;;;;;;;10.48;9.57;;;22.60;64.50;;;;;;5050707;28;20249;-73
2021/07/25 06:49:05;;;;;;;9.88;8.98;;;22.60;64.50;;;;;;5053029;28;20585;-72
2021/07/25 06:51:30;;;;;;;11.15;10.18;;;22.60;64.50;;;;;;5056304;28;20172;-72
2021/07/25 06:53:56;;;;;;;10.15;9.15;;;22.60;64.40;;;;;;5055771;28;20181;-72
2021/07/25 06:56:21;;;;;;;10.77;9.60;;;22.70;64.40;;;;;;5056060;28;20175;-71
2021/07/25 06:58:47;;;;;;;9.27;8.48;;;22.70;64.30;;;;;;5038243;28;20215;-72
2021/07/25 07:01:12;;;;;;;9.20;8.38;;;22.70;64.20;;;;;;5055590;28;20167;-72
2021/07/25 07:03:44;;;;;;;9.25;8.45;;;22.70;64.30;;;;;;5055711;28;20217;-72
2021/07/25 07:06:10;;;;;;;9.07;8.27;;;22.70;64.20;;;;;;5055586;28;20182;-73
2021/07/25 07:08:35;;;;;;;9.13;8.32;;;22.70;64.10;;;;;;5055912;28;20171;-73
2021/07/25 07:11:01;;;;;;;8.90;8.10;;;22.70;64.20;;;;;;5055995;28;20171;-72
2021/07/25 07:13:26;;;;;;;9.50;8.60;;;22.70;64.30;;;;;;5055058;28;20175;-71
2021/07/25 07:15:52;;;;;;;9.38;8.30;;;22.70;64.20;;;;;;5055880;28;20171;-72
2021/07/25 07:18:18;;;;;;;9.90;9.05;;;22.70;64.10;;;;;;5055509;28;20167;-72
2021/07/25 07:20:43;;;;;;;9.35;8.45;;;22.80;64.10;;;;;;5055278;28;20186;-72
2021/07/25 07:23:10;;;;;;;8.60;7.90;;;22.80;64.20;;;;;;5055829;28;20171;-73
2021/07/25 07:25:41;;;;;;;8.98;8.18;;;22.80;64.20;;;;;;5056247;28;20230;-74
2021/07/25 07:28:06;;;;;;;9.10;8.30;;;22.80;64.10;;;;;;5051840;28;20172;-71
2021/07/25 07:30:32;;;;;;;9.52;8.52;;;22.90;64.10;;;;;;5043343;28;20172;-72
2021/07/25 07:33:08;;;;;;;8.65;7.88;;;22.90;64.10;;;;;;5045675;28;20168;-71
2021/07/25 07:35:33;;;;;;;8.60;7.80;;;22.90;64.10;;;;;;5042654;28;20174;-73
2021/07/25 07:38:05;;;;;;;9.30;8.48;;;22.90;64.10;;;;;;5045068;28;20532;-72
2021/07/25 07:40:31;;;;;;;8.93;8.00;;;22.90;64.10;;;;;;5043823;28;20188;-72
2021/07/25 07:42:56;;;;;;;8.60;7.70;;;22.90;64.20;;;;;;5042312;28;20187;-72
2021/07/25 07:45:22;;;;;;;8.98;8.07;;;23.00;64.40;;;;;;5045956;28;20175;-73
2021/07/25 07:47:48;;;;;;;8.57;7.78;;;23.00;64.40;;;;;;5044676;28;20174;-73
2021/07/25 07:50:14;;;;;;;9.02;8.13;;;23.00;64.50;;;;;;5038265;28;20630;-76
2021/07/25 07:52:39;;;;;;;8.75;7.88;;;23.00;64.50;;;;;;5035192;28;20183;-74
2021/07/25 07:55:05;;;;;;;8.32;7.43;;;23.00;64.40;;;;;;5035089;28;20168;-75
2021/07/25 07:57:31;;;;;;;8.65;7.65;;;23.10;64.50;;;;;;5033820;28;20182;-73
2021/07/25 07:59:57;;;;;;;7.95;7.25;;;23.10;64.50;;;;;;5034525;28;20208;-74
2021/07/25 08:02:22;;;;;;;9.10;8.20;;;23.10;64.40;;;;;;5044591;28;20183;-74
2021/07/25 08:04:47;;;;;;;8.32;6.97;;;23.10;64.60;;;;;;5062560;28;20206;-75
2021/07/25 08:07:13;;;;;;;11.65;8.10;;;23.10;64.50;;;;;;5069184;28;20171;-74
2021/07/25 08:09:38;;;;;;;8.27;7.47;;;23.10;64.50;;;;;;5073880;28;20594;-74
2021/07/25 08:12:06;;;;;;;7.97;7.18;;;23.10;64.50;;;;;;5055067;28;20660;-75
2021/07/25 08:14:31;;;;;;;8.27;7.57;;;23.10;64.40;;;;;;5054114;28;20175;-73
2021/07/25 08:16:57;;;;;;;8.80;7.15;;;23.10;64.40;;;;;;5053884;28;20630;-74
2021/07/25 08:19:23;;;;;;;7.55;6.85;;;23.20;64.50;;;;;;5063372;28;20223;-75
2021/07/25 08:21:48;;;;;;;8.05;7.35;;;23.20;64.40;;;;;;5074390;28;20178;-73
2021/07/25 08:24:14;;;;;;;7.78;7.07;;;23.20;64.40;;;;;;5073585;28;20640;-73
2021/07/25 08:26:39;;;;;;;7.93;6.85;;;23.20;64.40;;;;;;5072950;28;20625;-72
2021/07/25 08:29:05;;;;;;;9.02;7.43;;;23.20;64.70;;;;;;5073344;28;20167;-72
2021/07/25 08:31:30;;;;;;;7.82;7.05;;;23.20;64.30;;;;;;5062341;28;20184;-72
2021/07/25 08:33:56;;;;;;;7.50;6.85;;;23.20;64.30;;;;;;5054302;28;20582;-73
2021/07/25 08:36:22;;;;;;;7.22;6.63;;;23.30;64.30;;;;;;5053744;28;20179;-73
2021/07/25 08:38:48;;;;;;;7.57;6.80;;;23.30;64.20;;;;;;5053600;28;20217;-73
2021/07/25 08:41:40;;;;;;;8.57;7.68;;;23.30;64.20;;;;;;5054192;28;20167;-73
2021/07/25 08:44:45;;;;;;;7.00;6.30;;;23.30;64.20;;;;;;5054296;28;20175;-75
2021/07/25 08:47:17;;;;;;;7.13;6.45;;;23.40;64.20;;;;;;5038352;28;20179;-73
2021/07/25 08:49:54;;;;;;;8.93;6.85;;;23.40;64.20;;;;;;5053986;28;20641;-73
2021/07/25 08:52:21;;;;;;;7.43;6.47;;;23.40;64.20;;;;;;5053086;28;20236;-75
2021/07/25 08:54:47;;;;;;;6.93;6.22;;;23.40;64.10;;;;;;5054158;28;20182;-74
2021/07/25 08:57:14;;;;;;;7.25;6.55;;;23.50;64.10;;;;;;5053877;28;20171;-72
2021/07/25 08:59:41;;;;;;;7.47;6.60;;;23.50;64.00;;;;;;5052853;28;20215;-75
2021/07/25 09:02:07;;;;;;;7.25;6.57;;;23.50;63.90;;;;;;5053814;28;20254;-74
2021/07/25 09:04:33;;;;;;;7.47;6.78;;;23.50;63.90;;;;;;5052083;28;20248;-74
2021/07/25 09:06:58;;;;;;;7.22;6.53;;;23.50;63.90;;;;;;5053178;28;20171;-70
2021/07/25 09:09:24;;;;;;;7.10;6.50;;;23.60;64.00;;;;;;5035440;28;20633;-76
2021/07/25 09:11:50;;;;;;;6.93;6.32;;;23.60;63.90;;;;;;5072551;28;20187;-74
2021/07/25 09:14:15;;;;;;;7.97;6.88;;;23.60;63.90;;;;;;5072516;28;20171;-72
2021/07/25 09:16:41;;;;;;;6.93;6.32;;;23.60;64.00;;;;;;5073523;28;20257;-74
2021/07/25 09:19:06;;;;;;;7.00;5.95;;;23.50;64.20;;;;;;5073527;28;20567;-74
2021/07/25 09:21:41;;;;;;;7.03;6.32;;;23.60;64.10;;;;;;5079368;28;20170;-74
2021/07/25 09:24:25;;;;;;;8.38;6.53;;;23.60;64.00;;;;;;5073214;28;20170;-77
2021/07/25 09:26:54;;;;;;;8.80;6.57;;;23.70;64.00;;;;;;5072708;28;20182;-74
2021/07/25 09:29:23;;;;;;;6.43;5.65;;;23.70;63.90;;;;;;5073196;28;20186;-73
2021/07/25 09:31:48;;;;;;;7.13;6.43;;;23.80;63.90;;;;;;5073405;28;20179;-75
2021/07/25 09:34:41;;;;;;;7.65;6.22;;;23.70;63.80;;;;;;5072586;28;20710;-74
2021/07/25 09:37:08;;;;;;;7.28;5.82;;;23.70;64.00;;;;;;5070237;28;20178;-75
2021/07/25 09:39:52;;;;;;;7.05;5.90;;;23.70;64.10;;;;;;5072699;28;20218;-75
2021/07/25 09:42:29;;;;;;;7.38;6.55;;;23.80;64.10;;;;;;5072133;28;20178;-75
2021/07/25 09:44:59;;;;;;;7.25;5.75;;;23.80;64.10;;;;;;5073154;28;20265;-74
2021/07/25 09:47:35;;;;;;;7.25;5.90;;;23.80;64.10;;;;;;5062640;28;20179;-73
2021/07/25 09:50:02;;;;;;;6.78;5.90;;;23.80;64.10;;;;;;5052037;28;20187;-74
2021/07/25 09:52:28;;;;;;;6.70;6.00;;;23.80;64.10;;;;;;5052376;28;20327;-71
2021/07/25 09:54:56;;;;;;;6.82;6.15;;;23.90;64.00;;;;;;5052399;28;20199;-72
2021/07/25 09:57:23;;;;;;;6.93;6.28;;;23.90;64.00;;;;;;5052547;28;20175;-73
2021/07/25 09:59:48;;;;;;;6.78;6.05;;;23.90;63.90;;;;;;5052564;28;20219;-73
2021/07/25 10:02:38;;;;;;;6.35;5.75;;;23.90;63.90;;;;;;5052081;28;20575;-73
2021/07/25 10:05:07;;;;;;;6.07;5.43;;;23.90;63.90;;;;;;5052868;28;20263;-74
2021/07/25 10:07:33;;;;;;;7.10;5.70;;;23.90;63.90;;;;;;5052614;28;20179;-73
2021/07/25 10:10:00;;;;;;;5.95;5.45;;;23.90;63.90;;;;;;5050813;28;20222;-75
2021/07/25 10:12:28;;;;;;;6.03;5.40;;;23.90;63.80;;;;;;5052537;28;20175;-72
2021/07/25 10:14:53;;;;;;;6.43;5.80;;;23.90;64.00;;;;;;5051498;28;20640;-73
2021/07/25 10:17:19;;;;;;;5.72;5.10;;;23.90;63.90;;;;;;5050330;28;20186;-73
2021/07/25 10:19:44;;;;;;;6.68;5.60;;;23.90;64.10;;;;;;5052606;28;20203;-73
2021/07/25 10:22:11;;;;;;;5.97;5.10;;;23.80;64.20;;;;;;5034630;28;20190;-73
2021/07/25 10:24:41;;;;;;;6.00;5.10;;;23.90;64.10;;;;;;5054730;28;20652;-74
2021/07/25 10:27:06;;;;;;;6.00;5.40;;;24.00;63.90;;;;;;5056716;28;20179;-71
2021/07/25 10:29:32;;;;;;;6.45;5.85;;;24.00;63.70;;;;;;5056314;28;20182;-71
2021/07/25 10:31:57;;;;;;;5.95;5.35;;;24.10;63.60;;;;;;5055623;28;20529;-71
2021/07/25 10:34:23;;;;;;;5.88;5.38;;;24.10;63.50;;;;;;5055235;28;20183;-71
2021/07/25 10:36:50;;;;;;;8.32;5.95;;;24.00;63.60;;;;;;5056643;28;20179;-71
2021/07/25 10:39:16;;;;;;;5.05;4.65;;;24.00;63.70;;;;;;5055515;28;20672;-72
2021/07/25 10:41:41;;;;;;;6.18;5.53;;;24.10;63.60;;;;;;5055532;28;20297;-74
2021/07/25 10:44:07;;;;;;;5.22;4.75;;;24.10;63.40;;;;;;5054883;28;20305;-72
2021/07/25 10:46:33;;;;;;;5.97;5.00;;;24.20;63.40;;;;;;5059985;28;20171;-73
2021/07/25 10:48:59;;;;;;;5.70;5.20;;;24.20;64.10;;;;;;5056225;28;20175;-73
2021/07/25 10:51:24;;;;;;;5.63;5.10;;;24.10;64.10;;;;;;5055434;28;20174;-72
2021/07/25 10:53:50;;;;;;;6.75;5.13;;;24.10;63.50;;;;;;5056482;28;20189;-75
2021/07/25 10:56:16;;;;;;;6.65;5.28;;;24.00;63.50;;;;;;5038132;28;20190;-71
2021/07/25 10:58:54;;;;;;;5.32;4.60;;;24.00;63.70;;;;;;5061139;28;20207;-74
2021/07/25 11:01:41;;;;;;;5.05;4.50;;;24.00;63.70;;;;;;5055745;28;20213;-74
2021/07/25 11:04:07;;;;;;;5.93;5.43;;;24.00;63.70;;;;;;5055949;28;20653;-69
2021/07/25 11:06:32;;;;;;;7.57;5.13;;;24.00;63.80;;;;;;5053975;28;20178;-69
2021/07/25 11:08:58;;;;;;;6.88;5.45;;;24.00;64.00;;;;;;5055986;28;20225;-68
2021/07/25 11:11:26;;;;;;;7.07;4.82;;;24.00;64.10;;;;;;5070230;28;20186;-69
2021/07/25 11:13:52;;;;;;;5.90;5.35;;;24.00;64.10;;;;;;5075163;28;20193;-69
2021/07/25 11:16:30;;;;;;;6.63;4.75;;;24.00;64.10;;;;;;5075694;28;20546;-70
2021/07/25 11:19:21;;;;;;;6.20;4.60;;;23.90;64.10;;;;;;5075763;28;20297;-68
2021/07/25 11:21:53;;;;;;;5.15;4.65;;;24.00;64.10;;;;;;5075681;28;20179;-66
2021/07/25 11:24:18;;;;;;;7.50;4.97;;;24.00;64.00;;;;;;5075373;28;20193;-65
2021/07/25 11:26:44;;;;;;;7.82;5.00;;;24.10;63.60;;;;;;5075176;28;20166;-65
2021/07/25 11:29:12;;;;;;;6.03;4.93;;;24.20;63.50;;;;;;5075739;28;20183;-66
2021/07/25 11:31:39;;;;;;;5.88;4.60;;;24.10;63.50;;;;;;5074146;28;20502;-65
2021/07/25 11:34:05;;;;;;;5.32;4.68;;;24.20;63.60;;;;;;5075077;28;20179;-69
2021/07/25 11:36:31;;;;;;;5.53;4.90;;;24.10;63.60;;;;;;5074775;28;20265;-68
2021/07/25 11:38:59;;;;;;;5.18;4.55;;;24.20;63.60;;;;;;5074434;28;20287;-68
2021/07/25 11:41:31;;;;;;;5.93;5.38;;;24.20;63.80;;;;;;5074468;28;20174;-65
2021/07/25 11:44:07;;;;;;;6.95;4.90;;;24.20;63.70;;;;;;5075237;28;20701;-72
2021/07/25 11:46:36;;;;;;;4.93;4.43;;;24.20;63.50;;;;;;5075027;28;20640;-70
2021/07/25 11:49:11;;;;;;;5.47;4.57;;;24.20;63.50;;;;;;5074759;28;20182;-73
2021/07/25 11:51:44;;;;;;;5.38;4.82;;;24.20;63.40;;;;;;5074994;28;20174;-73
2021/07/25 11:54:14;;;;;;;8.40;4.72;;;24.30;63.10;;;;;;5075318;28;20223;-75
2021/07/25 11:56:59;;;;;;;6.20;4.78;;;24.40;62.90;;;;;;5074185;28;20178;-71
2021/07/25 11:59:24;;;;;;;5.93;4.70;;;24.50;62.70;;;;;;5074758;28;20214;-71
2021/07/25 12:01:50;;;;;;;5.07;4.57;;;24.50;62.50;;;;;;5074604;28;20921;-72
2021/07/25 12:04:28;;;;;;;4.82;4.43;;;24.50;62.50;;;;;;5074917;28;20175;-72
2021/07/25 12:07:03;;;;;;;5.60;5.10;;;24.60;62.40;;;;;;5075101;28;20210;-73
2021/07/25 12:09:29;;;;;;;5.50;4.47;;;24.60;62.60;;;;;;5073732;28;20588;-66
2021/07/25 12:12:04;;;;;;;4.70;4.30;;;24.50;62.60;;;;;;5053987;28;20626;-67
2021/07/25 12:14:30;;;;;;;5.75;4.70;;;24.50;62.50;;;;;;5054639;28;20475;-67
2021/07/25 12:16:56;;;;;;;4.70;4.30;;;24.60;62.50;;;;;;5054143;28;20262;-67
2021/07/25 12:19:22;;;;;;;5.78;4.20;;;24.60;62.20;;;;;;5054419;28;20298;-67
2021/07/25 12:21:47;;;;;;;5.10;4.60;;;24.70;62.10;;;;;;5054696;28;20573;-66
2021/07/25 12:24:30;;;;;;;4.68;4.28;;;24.60;62.20;;;;;;5053761;28;20220;-67
2021/07/25 12:26:57;;;;;;;5.95;4.47;;;24.50;62.50;;;;;;5054754;28;20206;-66
2021/07/25 12:29:44;;;;;;;4.65;4.07;;;24.50;62.50;;;;;;5054299;28;20187;-65
2021/07/25 12:32:19;;;;;;;4.85;4.40;;;24.40;62.70;;;;;;5054568;28;20171;-65
2021/07/25 12:34:45;;;;;;;4.90;4.50;;;24.60;62.60;;;;;;5054383;28;20174;-66
2021/07/25 12:37:26;;;;;;;4.70;4.30;;;24.60;62.10;;;;;;5053646;28;20175;-66
2021/07/25 12:40:11;;;;;;;4.75;4.25;;;24.60;62.20;;;;;;5053188;28;20622;-67